Lyons, CO

2:59 PM MDT on September 01, 2015 (GMT -0600)
UDFCD | | Change Station
CLOSE
Current Station
Personal Weather Station
Location: Lyons, CO
Elevation: 6500 ft
Nearby Weather Stations

Elev 6500 ft 40.22 °N, 105.37 °W | Updated 54 minutes ago

Clear
Clear
84.0 °F
Feels Like 84.0 °F
N
0.0
Wind Variable Wind from SW
Gusts 11.0 mph

Today
High -- | Low -- °F
--% Chance of Precip.
Yesterday
High -- | Low -- °F
Precip. -- in
6:28 AM 7:33 PM
Waning Gibbous, 86% visible
Pressure 30.04 in
Visibility 10.0 miles
Clouds Clear
Dew Point 45.0 °F
Humidity 25%
Rainfall in
Snow Depth Not available.
UV 8 out of 12
Pollen 9.90 out of 12
Air Quality Not available.
Flu Activity Not available.
METAR KLMO 012054Z AUTO 09003KT 10SM CLR 32/03 A3004 RMK AO2 T03150033 PWINO
Pressure 30.04 in
Visibility 10.0 miles
Clouds Clear
Dew Point 45.0 °F
Humidity 25%
Rainfall in
Snow Depth Not available.
UV 8 out of 12
Pollen 9.90 out of 12
Air Quality Not available.
Flu Activity Not available.
METAR KLMO 012054Z AUTO 09003KT 10SM CLR 32/03 A3004 RMK AO2 T03150033 PWINO

10-Day Weather Forecast

×

Almanac

Astronomy

Sep. 01, 2015 Rise Set
Actual Time
Civil Twilight
Nautical Twilight
Astronomical Twilight
Moon
Length of Visible Light
Length of Day
Tomorrow will be .
, % of the Moon is Illuminated

Today's Extremes

State Highs State Lows

Community

WunderPhotos

Upload Photos

1,851,608 photos uploaded!

WunderBlogs® & News

Nearby

Air Quality

  Air Quality AQ Index Pollutant
Not available.

Snow Depth

Station Depth Elevation

Earthquake Activity

City Distance Mag. Time & Date
Minimum magnitude displayed is 2.5.

Coastal Water Temperatures

Place Temperature

Stations

Nearby Weather Stations

Station Location Temp. Windchill Dew Point Humidity Wind Precip. Elev Updated Type